Time;durP1;ratioP1;P1;durP2;ratioP2;P2;SDS_P1;SDS_P2;PMS_P1;PMS_P2;Temp;Humidity;BMP_temperature;BMP_pressure;BME280_temperature;BME280_humidity;BME280_pressure;Samples;Min_cycle;Max_cycle;Signal;HPM_P1;HPM_P2
2022/08/03 00:02:23;;;;;;;0.00;0.00;;;;;;;17.35;96.74;101462.66;4968543;28;20137;-68
2022/08/03 00:04:49;;;;;;;0.00;0.00;;;;;;;17.33;97.18;101463.81;4970632;28;20065;-67
2022/08/03 00:07:14;;;;;;;0.00;0.00;;;;;;;17.19;97.45;101433.47;4964696;28;20141;-67
2022/08/03 00:09:40;;;;;;;0.00;0.00;;;;;;;17.34;97.93;101462.81;4971405;28;20057;-68
2022/08/03 00:12:05;;;;;;;0.00;0.00;;;;;;;17.37;97.10;101465.22;4965944;28;20506;-67
2022/08/03 00:14:31;;;;;;;0.00;0.00;;;;;;;17.38;95.57;101462.34;4971074;28;20044;-67
2022/08/03 00:16:56;;;;;;;0.00;0.00;;;;;;;17.39;95.22;101461.34;4969752;28;20067;-68
2022/08/03 00:19:22;;;;;;;0.00;0.00;;;;;;;17.32;94.74;101462.97;4976122;28;20370;-67
2022/08/03 00:21:47;;;;;;;0.00;0.00;;;;;;;17.23;95.11;101461.16;4971315;28;20035;-67
2022/08/03 00:24:12;;;;;;;0.00;0.00;;;;;;;17.12;95.24;101458.59;4967901;28;20061;-68
2022/08/03 00:26:38;;;;;;;0.00;0.00;;;;;;;16.99;96.51;101457.06;4970917;28;20034;-67
2022/08/03 00:29:03;;;;;;;0.00;0.00;;;;;;;16.93;98.28;101458.50;4971209;28;20497;-67
2022/08/03 00:31:28;;;;;;;0.00;0.00;;;;;;;16.91;99.89;101459.63;4969360;28;20383;-68
2022/08/03 00:33:54;;;;;;;0.00;0.00;;;;;;;16.92;100.00;101464.06;4970392;28;20114;-67
2022/08/03 00:36:19;;;;;;;0.00;0.00;;;;;;;16.92;100.00;101461.34;4967899;28;20030;-67
2022/08/03 00:38:44;;;;;;;0.00;0.00;;;;;;;16.84;98.59;101462.06;4965928;28;20035;-67
2022/08/03 00:41:10;;;;;;;0.00;0.00;;;;;;;16.81;98.01;101461.53;4967121;28;20030;-67
2022/08/03 00:43:35;;;;;;;0.00;0.00;;;;;;;16.78;98.87;101451.81;4971782;28;20041;-67
2022/08/03 00:46:00;;;;;;;0.00;0.00;;;;;;;16.78;99.23;101447.25;4972335;28;20184;-67
2022/08/03 00:48:25;;;;;;;0.00;0.00;;;;;;;16.80;98.04;101444.38;4969311;28;20427;-67
2022/08/03 00:50:52;;;;;;;0.00;0.00;;;;;;;16.63;97.89;101422.44;4967698;28;20529;-67
2022/08/03 00:53:17;;;;;;;0.00;0.00;;;;;;;16.76;97.82;101456.50;4968152;28;20034;-67
2022/08/03 00:55:42;;;;;;;0.00;0.00;;;;;;;16.71;97.30;101450.66;4961660;28;20479;-68
2022/08/03 00:58:09;;;;;;;0.00;0.00;;;;;;;16.62;98.18;101453.25;4968770;28;20031;-67
2022/08/03 01:00:37;;;;;;;0.00;0.00;;;;;;;16.59;98.30;101447.25;4973363;28;20066;-67
2022/08/03 01:03:04;;;;;;;0.00;0.00;;;;;;;16.61;99.38;101442.53;4964751;28;20022;-67
2022/08/03 01:05:32;;;;;;;0.00;0.00;;;;;;;16.64;100.00;101442.25;4962777;28;20081;-67
2022/08/03 01:08:02;;;;;;;0.00;0.00;;;;;;;16.67;100.00;101441.97;4965621;28;20309;-67
2022/08/03 01:11:01;;;;;;;0.00;0.00;;;;;;;16.68;99.70;101432.84;4966273;28;20106;-67
2022/08/03 01:13:34;;;;;;;0.00;0.00;;;;;;;16.69;99.74;101436.41;4964188;28;20053;-67
2022/08/03 01:16:25;;;;;;;0.00;0.00;;;;;;;16.72;99.51;101431.56;4974687;28;20505;-67
2022/08/03 01:19:31;;;;;;;0.08;0.00;;;;;;;16.73;98.78;101438.69;4969131;28;20035;-67
2022/08/03 01:22:15;;;;;;;0.00;0.00;;;;;;;16.71;98.23;101437.09;4970394;28;20490;-67
2022/08/03 01:24:57;;;;;;;0.00;0.00;;;;;;;16.62;97.18;101425.28;4969919;28;20486;-67
2022/08/03 01:27:28;;;;;;;0.00;0.00;;;;;;;16.60;97.25;101428.16;4965717;28;20031;-67
2022/08/03 01:30:05;;;;;;;0.00;0.00;;;;;;;16.56;96.71;101431.28;4967763;28;20085;-68
2022/08/03 01:32:43;;;;;;;0.00;0.00;;;;;;;16.52;97.34;101433.44;4949525;28;20037;-67
2022/08/03 01:35:11;;;;;;;0.00;0.00;;;;;;;16.50;97.50;101432.72;4966951;28;20030;-67
2022/08/03 01:37:56;;;;;;;0.00;0.00;;;;;;;16.43;97.02;101432.44;4964113;28;20650;-67
2022/08/03 01:40:23;;;;;;;0.00;0.00;;;;;;;16.36;97.14;101434.00;4963938;28;20026;-67
2022/08/03 01:42:49;;;;;;;0.00;0.00;;;;;;;16.31;97.67;101429.03;4974629;28;20026;-67
2022/08/03 01:45:17;;;;;;;0.03;0.03;;;;;;;16.26;98.16;101431.31;4965257;28;20033;-68
2022/08/03 01:47:43;;;;;;;0.00;0.00;;;;;;;16.26;99.40;101436.72;4966106;28;20030;-68
2022/08/03 01:50:11;;;;;;;0.00;0.00;;;;;;;16.26;99.52;101423.19;4949087;28;20569;-68
2022/08/03 01:52:39;;;;;;;0.00;0.00;;;;;;;16.24;100.00;101424.34;4965944;28;20493;-68
2022/08/03 01:55:06;;;;;;;0.00;0.00;;;;;;;16.13;100.00;101420.75;4969255;28;20052;-68
2022/08/03 01:57:32;;;;;;;0.00;0.00;;;;;;;16.16;100.00;101414.19;4960386;28;20038;-68
2022/08/03 01:59:59;;;;;;;0.00;0.00;;;;;;;16.19;100.00;101420.19;4963314;28;20379;-67
2022/08/03 02:02:25;;;;;;;0.00;0.00;;;;;;;16.04;100.00;101394.50;4965616;28;20110;-68
2022/08/03 02:04:53;;;;;;;0.00;0.00;;;;;;;16.27;100.00;101418.63;4961649;28;20386;-67
2022/08/03 02:07:18;;;;;;;0.00;0.00;;;;;;;16.38;100.00;101420.34;4963645;28;21684;-67
2022/08/03 02:09:46;;;;;;;0.00;0.00;;;;;;;16.47;100.00;101422.16;4968606;28;20022;-68
2022/08/03 02:12:13;;;;;;;0.00;0.00;;;;;;;16.50;100.00;101421.88;4965104;28;20034;-68
2022/08/03 02:14:39;;;;;;;0.00;0.00;;;;;;;16.46;99.87;101424.03;4971132;28;20084;-68
2022/08/03 02:17:08;;;;;;;0.00;0.00;;;;;;;16.40;100.00;101411.06;4959985;28;20038;-67
2022/08/03 02:19:34;;;;;;;0.00;0.00;;;;;;;16.40;100.00;101411.06;4970637;28;20035;-68
2022/08/03 02:21:59;;;;;;;0.00;0.00;;;;;;;16.50;100.00;101413.75;4961440;28;20612;-67
2022/08/03 02:24:25;;;;;;;0.00;0.00;;;;;;;16.45;100.00;101392.50;4966031;28;20018;-68
2022/08/03 02:26:51;;;;;;;0.00;0.00;;;;;;;16.69;100.00;101409.28;4961791;28;20034;-67
2022/08/03 02:29:19;;;;;;;0.05;0.05;;;;;;;16.78;100.00;101412.00;4964506;28;20031;-67
2022/08/03 02:31:45;;;;;;;0.10;0.10;;;;;;;16.88;100.00;101420.09;4961445;28;20031;-67
2022/08/03 02:34:13;;;;;;;0.00;0.00;;;;;;;16.98;100.00;101414.69;4967180;28;20030;-68
2022/08/03 02:36:40;;;;;;;0.00;0.00;;;;;;;17.03;100.00;101409.66;4964538;28;20026;-68
2022/08/03 02:39:06;;;;;;;0.00;0.00;;;;;;;17.05;100.00;101413.09;4966515;28;20023;-67
2022/08/03 02:41:37;;;;;;;0.00;0.00;;;;;;;17.09;100.00;101414.47;4962632;28;20030;-67
2022/08/03 02:44:06;;;;;;;0.00;0.00;;;;;;;17.09;100.00;101409.06;4959831;28;20034;-68
2022/08/03 02:46:34;;;;;;;0.00;0.00;;;;;;;17.07;100.00;101402.94;4959564;28;20488;-67
2022/08/03 02:49:01;;;;;;;0.00;0.00;;;;;;;17.09;100.00;101406.34;4963769;28;20043;-67
2022/08/03 02:51:29;;;;;;;0.00;0.00;;;;;;;17.09;100.00;101398.19;4964703;28;20053;-68
2022/08/03 02:53:55;;;;;;;0.00;0.00;;;;;;;17.12;100.00;101404.34;4965338;28;20073;-68
2022/08/03 02:56:21;;;;;;;0.00;0.00;;;;;;;17.06;100.00;101405.78;4964486;28;20038;-67
2022/08/03 02:58:48;;;;;;;0.00;0.00;;;;;;;16.92;99.92;101407.09;4962832;28;20655;-67
2022/08/03 03:01:14;;;;;;;0.00;0.00;;;;;;;16.79;100.00;101388.44;4961255;28;20035;-68
2022/08/03 03:03:40;;;;;;;0.10;0.10;;;;;;;16.77;100.00;101396.72;4963429;28;20042;-67
2022/08/03 03:06:06;;;;;;;0.00;0.00;;;;;;;16.86;100.00;101397.69;4959238;28;20030;-68
2022/08/03 03:08:31;;;;;;;0.00;0.00;;;;;;;16.89;100.00;101393.81;4964178;28;20041;-68
2022/08/03 03:10:58;;;;;;;0.00;0.00;;;;;;;16.89;100.00;101400.13;4971048;28;20023;-68
2022/08/03 03:13:24;;;;;;;0.00;0.00;;;;;;;16.92;100.00;101404.38;4962925;28;20494;-68
2022/08/03 03:15:51;;;;;;;0.00;0.00;;;;;;;16.86;100.00;101403.13;4968910;28;20038;-67
2022/08/03 03:18:16;;;;;;;0.00;0.00;;;;;;;16.68;100.00;101381.34;4961624;28;20157;-68
2022/08/03 03:20:43;;;;;;;0.00;0.00;;;;;;;16.79;100.00;101400.16;4930726;28;1020287;-67
2022/08/03 03:23:08;;;;;;;0.00;0.00;;;;;;;16.63;100.00;101383.63;4968394;28;20498;-67
2022/08/03 03:25:34;;;;;;;0.00;0.00;;;;;;;16.73;100.00;101394.44;4971042;28;20355;-68
2022/08/03 03:28:00;;;;;;;0.00;0.00;;;;;;;16.70;100.00;101394.72;4959017;28;20042;-67
2022/08/03 03:30:26;;;;;;;0.00;0.00;;;;;;;16.69;100.00;101393.00;4968790;28;20053;-67
2022/08/03 03:32:52;;;;;;;0.00;0.00;;;;;;;16.49;100.00;101379.50;4965955;28;20525;-67
2022/08/03 03:35:18;;;;;;;0.00;0.00;;;;;;;16.45;100.00;101406.06;4966072;28;20043;-68
2022/08/03 03:37:43;;;;;;;0.05;0.05;;;;;;;16.32;100.00;101400.94;4969016;28;20085;-67
2022/08/03 03:40:09;;;;;;;0.00;0.00;;;;;;;16.32;100.00;101391.94;4968472;28;20031;-68
2022/08/03 03:42:35;;;;;;;0.10;0.10;;;;;;;16.20;100.00;101377.69;4966078;28;20144;-67
2022/08/03 03:45:05;;;;;;;0.00;0.00;;;;;;;16.37;100.00;101397.78;4965478;28;20061;-68
2022/08/03 03:47:30;;;;;;;0.00;0.00;;;;;;;16.43;100.00;101399.06;4965804;28;20042;-68
2022/08/03 03:49:56;;;;;;;0.00;0.00;;;;;;;16.51;100.00;101401.91;4964521;28;20034;-66
2022/08/03 03:52:22;;;;;;;0.00;0.00;;;;;;;16.51;100.00;101398.34;4962355;28;20119;-67
2022/08/03 03:54:47;;;;;;;0.00;0.00;;;;;;;16.53;100.00;101393.66;4983776;28;20030;-67
2022/08/03 03:57:12;;;;;;;0.00;0.00;;;;;;;16.60;100.00;101394.75;4966379;28;20050;-67
2022/08/03 03:59:39;;;;;;;0.00;0.00;;;;;;;16.66;100.00;101396.03;4969579;28;20037;-67
2022/08/03 04:02:05;;;;;;;0.00;0.00;;;;;;;16.71;100.00;101402.72;4964970;28;20210;-66
2022/08/03 04:13:17;;;;;;;0.10;0.10;;;;;;;16.79;100.00;101402.88;4938121;28;20046;-66
2022/08/03 04:15:42;;;;;;;0.00;0.00;;;;;;;16.84;100.00;101394.28;4951812;28;20442;-67
2022/08/03 04:18:10;;;;;;;0.00;0.00;;;;;;;16.98;100.00;101405.66;4944317;28;20159;-67
2022/08/03 04:20:37;;;;;;;0.00;0.00;;;;;;;17.03;100.00;101404.25;4936249;28;20046;-67
2022/08/03 04:23:03;;;;;;;0.00;0.00;;;;;;;17.13;100.00;101403.34;4943710;28;20089;-67
2022/08/03 04:25:31;;;;;;;0.00;0.00;;;;;;;17.12;100.00;101404.34;4940257;28;20074;-67
2022/08/03 04:27:59;;;;;;;0.00;0.00;;;;;;;17.14;100.00;101405.91;4944537;28;20048;-66
2022/08/03 04:30:29;;;;;;;0.00;0.00;;;;;;;17.09;100.00;101391.94;4940188;28;20027;-67
2022/08/03 04:32:55;;;;;;;0.05;0.05;;;;;;;17.13;100.00;101397.91;4947578;28;20107;-66
2022/08/03 04:35:21;;;;;;;0.05;0.05;;;;;;;17.18;100.00;101401.03;4938663;28;20035;-67
2022/08/03 04:37:48;;;;;;;0.00;0.00;;;;;;;17.17;100.00;101404.75;4953943;28;20039;-67
2022/08/03 04:40:33;;;;;;;0.00;0.00;;;;;;;17.15;100.00;101402.19;4941658;28;20037;-67
2022/08/03 04:42:59;;;;;;;0.00;0.00;;;;;;;16.99;100.00;101383.84;4956518;28;20106;-66
2022/08/03 04:45:24;;;;;;;0.00;0.00;;;;;;;17.05;100.00;101395.94;4941932;28;20175;-67
2022/08/03 04:47:50;;;;;;;0.00;0.00;;;;;;;17.14;100.00;101410.47;4955027;28;20043;-67
2022/08/03 04:50:16;;;;;;;0.00;0.00;;;;;;;17.12;100.00;101407.06;4936221;28;20046;-67
2022/08/03 04:52:41;;;;;;;0.00;0.00;;;;;;;17.11;100.00;101410.75;4943382;28;20019;-67
2022/08/03 04:55:07;;;;;;;0.00;0.00;;;;;;;17.07;100.00;101411.09;4945463;28;20045;-67
2022/08/03 04:57:32;;;;;;;0.00;0.00;;;;;;;17.10;100.00;101415.34;4944233;28;20396;-66
2022/08/03 04:59:58;;;;;;;0.00;0.00;;;;;;;17.13;100.00;101415.06;4941179;28;20049;-67
2022/08/03 05:02:23;;;;;;;0.10;0.10;;;;;;;17.23;100.00;101413.13;4949623;28;20024;-67
2022/08/03 05:04:48;;;;;;;0.00;0.00;;;;;;;17.41;100.00;101417.78;4939402;28;20035;-66
2022/08/03 05:07:15;;;;;;;0.08;0.08;;;;;;;17.58;100.00;101416.13;4941544;28;20034;-66
2022/08/03 05:09:40;;;;;;;0.00;0.00;;;;;;;17.64;100.00;101412.78;4942530;28;20511;-66
2022/08/03 05:12:06;;;;;;;0.00;0.00;;;;;;;17.66;100.00;101418.09;4926319;28;20093;-67
2022/08/03 05:14:32;;;;;;;0.08;0.08;;;;;;;17.78;100.00;101422.28;4940223;28;20037;-68
2022/08/03 05:16:57;;;;;;;0.00;0.00;;;;;;;17.86;100.00;101415.22;4939946;28;20034;-69
2022/08/03 05:19:23;;;;;;;0.03;0.03;;;;;;;17.95;100.00;101428.75;4943349;28;20300;-66
2022/08/03 05:21:48;;;;;;;0.10;0.10;;;;;;;18.08;100.00;101427.56;4940921;28;20110;-67
2022/08/03 05:24:13;;;;;;;0.05;0.05;;;;;;;18.08;100.00;101433.00;4936615;28;20038;-67
2022/08/03 05:26:39;;;;;;;0.00;0.00;;;;;;;18.13;100.00;101433.38;4938319;28;20035;-67
2022/08/03 05:29:04;;;;;;;0.05;0.05;;;;;;;18.38;100.00;101430.91;4942706;28;20122;-67
2022/08/03 05:31:29;;;;;;;0.00;0.00;;;;;;;18.51;100.00;101431.31;4944769;28;20027;-67
2022/08/03 05:33:56;;;;;;;0.00;0.00;;;;;;;18.62;100.00;101432.09;4938372;28;20042;-67
2022/08/03 05:36:21;;;;;;;0.00;0.00;;;;;;;18.84;100.00;101438.88;4940988;28;20427;-67
2022/08/03 05:38:46;;;;;;;0.00;0.00;;;;;;;18.80;100.00;101441.06;4935853;28;20028;-69
2022/08/03 05:41:11;;;;;;;0.00;0.00;;;;;;;18.86;100.00;101439.56;4931619;28;20023;-67
2022/08/03 05:43:37;;;;;;;0.00;0.00;;;;;;;18.73;100.00;101449.00;4942103;28;20039;-67
2022/08/03 05:46:02;;;;;;;0.00;0.00;;;;;;;18.81;100.00;101444.63;4945002;28;20043;-66
2022/08/03 05:48:27;;;;;;;0.00;0.00;;;;;;;18.79;100.00;101430.34;4940867;28;20391;-67
2022/08/03 05:50:53;;;;;;;0.00;0.00;;;;;;;18.99;100.00;101445.47;4934711;28;20111;-67
2022/08/03 05:53:18;;;;;;;0.08;0.08;;;;;;;19.11;100.00;101440.63;4943622;28;20042;-67
2022/08/03 05:55:43;;;;;;;0.00;0.00;;;;;;;19.17;100.00;101445.44;4938267;28;20031;-67
2022/08/03 05:58:09;;;;;;;0.00;0.00;;;;;;;19.19;100.00;101426.19;4944328;28;20118;-75
2022/08/03 06:00:34;;;;;;;0.00;0.00;;;;;;;19.36;100.00;101448.03;4949569;28;20165;-67
2022/08/03 06:02:59;;;;;;;0.00;0.00;;;;;;;19.39;100.00;101439.56;4929971;28;20115;-66
2022/08/03 06:05:27;;;;;;;0.00;0.00;;;;;;;19.55;100.00;101446.94;4947677;28;20031;-66
2022/08/03 06:07:52;;;;;;;0.10;0.10;;;;;;;19.68;99.62;101449.19;4943897;28;20038;-66
2022/08/03 06:10:17;;;;;;;0.00;0.00;;;;;;;19.63;98.80;101425.19;4946596;28;20051;-67
2022/08/03 06:12:46;;;;;;;0.00;0.00;;;;;;;19.86;98.60;101447.25;4940716;28;20411;-67
2022/08/03 06:15:11;;;;;;;0.00;0.00;;;;;;;19.95;96.90;101425.47;4947919;28;20034;-67
2022/08/03 06:17:47;;;;;;;0.00;0.00;;;;;;;20.16;96.95;101453.09;4947596;28;20443;-66
2022/08/03 06:20:13;;;;;;;0.00;0.00;;;;;;;19.99;95.81;101422.25;4942246;28;20834;-67
2022/08/03 06:22:38;;;;;;;0.10;0.10;;;;;;;20.03;97.16;101423.59;4947344;28;20043;-67
2022/08/03 06:25:05;;;;;;;0.00;0.00;;;;;;;20.38;94.26;101456.22;4953144;28;20042;-67
2022/08/03 06:27:30;;;;;;;0.00;0.00;;;;;;;20.54;93.86;101444.44;4952897;28;20027;-67
2022/08/03 06:29:55;;;;;;;0.03;0.03;;;;;;;20.56;92.98;101457.91;4955487;28;20490;-67
2022/08/03 06:32:21;;;;;;;0.10;0.10;;;;;;;20.67;94.00;101454.81;4954547;28;20479;-67
2022/08/03 06:34:47;;;;;;;0.00;0.00;;;;;;;20.87;91.65;101458.06;4950018;28;20023;-67
2022/08/03 06:37:12;;;;;;;0.00;0.00;;;;;;;20.84;91.79;101455.69;4938003;28;20062;-67
2022/08/03 06:39:37;;;;;;;0.00;0.00;;;;;;;20.98;90.75;101462.31;4932396;28;20039;-67
2022/08/03 06:42:03;;;;;;;0.00;0.00;;;;;;;20.91;88.83;101459.44;4932899;28;20106;-67
2022/08/03 06:44:29;;;;;;;0.00;0.00;;;;;;;21.15;90.20;101459.56;4936086;28;20130;-67
2022/08/03 06:46:54;;;;;;;0.00;0.00;;;;;;;21.27;88.61;101463.63;4932040;28;20068;-67
2022/08/03 06:49:19;;;;;;;0.00;0.00;;;;;;;21.47;88.78;101461.34;4938773;28;20022;-67
2022/08/03 06:51:45;;;;;;;0.00;0.00;;;;;;;21.61;86.93;101461.59;4938257;28;20034;-67
2022/08/03 06:54:11;;;;;;;0.00;0.00;;;;;;;21.67;86.35;101460.94;4932649;28;20103;-67
2022/08/03 06:56:36;;;;;;;0.10;0.10;;;;;;;21.80;85.22;101465.81;4932670;28;20035;-68
2022/08/03 06:59:01;;;;;;;0.00;0.00;;;;;;;21.84;85.26;101473.50;4934170;28;20348;-67
2022/08/03 07:01:27;;;;;;;0.10;0.10;;;;;;;21.86;83.58;101474.16;4938561;28;20379;-66
2022/08/03 07:03:53;;;;;;;0.00;0.00;;;;;;;21.91;82.89;101468.16;4931393;28;20035;-66
2022/08/03 07:06:19;;;;;;;0.00;0.00;;;;;;;22.15;82.89;101472.63;4933848;28;20035;-68
2022/08/03 07:08:44;;;;;;;0.00;0.00;;;;;;;22.14;81.83;101438.09;4929111;28;20050;-68
2022/08/03 07:11:09;;;;;;;0.00;0.00;;;;;;;22.36;81.19;101473.00;4912583;28;20024;-67
2022/08/03 07:13:34;;;;;;;0.00;0.00;;;;;;;22.26;80.31;101468.63;4933510;28;20035;-67
2022/08/03 07:16:00;;;;;;;0.00;0.00;;;;;;;22.23;80.99;101469.00;4939163;28;20450;-67
2022/08/03 07:18:25;;;;;;;0.00;0.00;;;;;;;22.43;80.38;101466.63;4940413;28;20480;-67
2022/08/03 07:20:50;;;;;;;0.00;0.00;;;;;;;22.53;79.16;101465.56;4932526;28;20059;-67
2022/08/03 07:23:16;;;;;;;0.00;0.00;;;;;;;22.53;78.68;101471.03;4936477;28;20038;-67
2022/08/03 07:25:41;;;;;;;0.00;0.00;;;;;;;22.43;78.11;101474.00;4935067;28;20074;-67
2022/08/03 07:28:07;;;;;;;0.05;0.05;;;;;;;22.52;78.94;101480.25;4943239;28;20038;-68
2022/08/03 07:30:32;;;;;;;0.00;0.00;;;;;;;22.69;78.06;101481.81;4937325;28;20063;-70
2022/08/03 07:32:58;;;;;;;0.00;0.00;;;;;;;22.90;77.75;101472.06;4944096;28;20107;-70
2022/08/03 07:35:23;;;;;;;0.00;0.00;;;;;;;23.00;78.42;101475.38;4945331;28;20147;-67
2022/08/03 07:37:48;;;;;;;0.00;0.00;;;;;;;22.92;77.31;101469.97;4938059;28;20028;-67
2022/08/03 07:40:13;;;;;;;0.08;0.00;;;;;;;23.09;75.13;101484.34;4937952;28;20058;-68
2022/08/03 07:42:39;;;;;;;0.00;0.00;;;;;;;23.30;75.69;101478.16;4938986;28;20031;-69
2022/08/03 07:45:05;;;;;;;0.00;0.00;;;;;;;23.11;73.99;101476.81;4939527;28;20509;-69
2022/08/03 07:47:30;;;;;;;0.10;0.10;;;;;;;23.13;74.63;101472.00;4937657;28;20037;-68
2022/08/03 07:49:56;;;;;;;0.00;0.00;;;;;;;23.18;75.51;101479.63;4938487;28;20027;-68
2022/08/03 07:55:07;;;;;;;0.00;0.00;;;;;;;23.34;75.83;101482.25;4937987;28;20098;-67
2022/08/03 07:57:33;;;;;;;0.00;0.00;;;;;;;23.65;74.42;101475.69;4937124;28;20051;-68
2022/08/03 07:59:58;;;;;;;0.05;0.05;;;;;;;23.86;73.63;101473.19;4938250;28;20054;-68
2022/08/03 08:02:24;;;;;;;0.00;0.00;;;;;;;23.77;72.30;101459.59;4935647;28;20027;-70
2022/08/03 08:04:49;;;;;;;0.00;0.00;;;;;;;23.94;73.01;101475.81;4939423;28;20885;-67
2022/08/03 08:07:15;;;;;;;0.00;0.00;;;;;;;24.05;73.69;101474.50;4940463;28;20476;-67
2022/08/03 08:09:41;;;;;;;0.00;0.00;;;;;;;24.03;72.43;101484.81;4949155;28;20586;-68
2022/08/03 08:12:07;;;;;;;0.00;0.00;;;;;;;24.22;70.95;101483.34;4945080;28;20376;-68
2022/08/03 08:14:33;;;;;;;0.10;0.10;;;;;;;24.35;71.20;101471.66;4946383;28;20031;-68
2022/08/03 08:16:58;;;;;;;0.10;0.10;;;;;;;24.35;70.36;101469.75;4940469;28;20176;-68
2022/08/03 08:19:23;;;;;;;0.00;0.00;;;;;;;24.48;71.07;101481.91;4947486;28;20118;-67
2022/08/03 08:21:49;;;;;;;0.00;0.00;;;;;;;24.73;69.21;101474.16;4945565;28;20031;-69
2022/08/03 08:24:14;;;;;;;0.00;0.00;;;;;;;24.71;70.27;101470.75;4951990;28;20206;-69
2022/08/03 08:26:39;;;;;;;0.00;0.00;;;;;;;24.89;69.63;101478.50;4950087;28;20035;-69
2022/08/03 08:29:05;;;;;;;0.00;0.00;;;;;;;24.85;70.20;101460.72;4946301;28;20470;-68
2022/08/03 08:31:31;;;;;;;0.00;0.00;;;;;;;24.70;69.35;101452.53;4945833;28;20078;-69
2022/08/03 08:33:56;;;;;;;0.00;0.00;;;;;;;24.72;69.36;101475.19;4941008;28;20040;-67
2022/08/03 08:36:21;;;;;;;0.00;0.00;;;;;;;24.71;71.83;101471.59;4938192;28;20432;-68
2022/08/03 08:38:47;;;;;;;0.00;0.00;;;;;;;24.80;68.68;101472.28;4941828;28;20070;-69
2022/08/03 08:41:13;;;;;;;0.00;0.00;;;;;;;24.98;69.87;101468.22;4944923;28;20050;-69
2022/08/03 08:43:39;;;;;;;0.00;0.00;;;;;;;24.78;66.53;101457.06;4948013;28;20046;-70
2022/08/03 08:46:07;;;;;;;0.00;0.00;;;;;;;24.67;68.00;101470.25;4941429;28;20027;-68
2022/08/03 08:48:32;;;;;;;0.00;0.00;;;;;;;24.58;69.53;101471.44;4953920;28;20526;-69
2022/08/03 08:50:59;;;;;;;0.00;0.00;;;;;;;24.31;68.48;101453.88;4944405;28;20031;-69
2022/08/03 08:53:25;;;;;;;0.00;0.00;;;;;;;24.50;68.32;101469.66;4928288;28;20392;-70
2022/08/03 08:55:53;;;;;;;0.00;0.00;;;;;;;24.66;68.55;101471.28;4943039;28;20659;-70
2022/08/03 08:58:21;;;;;;;0.08;0.08;;;;;;;24.79;67.20;101465.09;4941643;28;20178;-69
2022/08/03 09:00:47;;;;;;;0.00;0.00;;;;;;;25.05;66.66;101471.00;4938367;28;20134;-68
2022/08/03 09:03:13;;;;;;;0.00;0.00;;;;;;;25.16;64.97;101468.53;4944531;28;20030;-69
2022/08/03 09:05:41;;;;;;;0.00;0.00;;;;;;;25.09;64.16;101464.06;4943870;28;20523;-69
2022/08/03 09:08:07;;;;;;;0.00;0.00;;;;;;;25.12;64.63;101466.41;4942941;28;20042;-68
2022/08/03 09:10:33;;;;;;;0.00;0.00;;;;;;;25.15;64.38;101474.25;4941130;28;20131;-68
2022/08/03 09:12:59;;;;;;;0.00;0.00;;;;;;;25.13;64.63;101474.44;4935756;28;20028;-68
2022/08/03 09:15:26;;;;;;;0.05;0.05;;;;;;;25.29;66.69;101470.50;4943983;28;20519;-70
2022/08/03 09:17:54;;;;;;;0.00;0.00;;;;;;;25.42;66.51;101468.91;4939448;28;20070;-67
2022/08/03 09:20:20;;;;;;;0.00;0.00;;;;;;;25.16;62.44;101476.78;4936829;28;20035;-68
2022/08/03 09:22:56;;;;;;;0.00;0.00;;;;;;;25.42;65.20;101469.72;4945368;28;20067;-67
2022/08/03 09:25:36;;;;;;;0.00;0.00;;;;;;;25.52;61.74;101469.38;4953280;28;20126;-69
2022/08/03 09:28:07;;;;;;;0.10;0.10;;;;;;;25.82;64.09;101471.00;4940403;28;20077;-69
2022/08/03 09:30:33;;;;;;;0.00;0.00;;;;;;;25.92;62.32;101441.19;4948976;28;20082;-70
2022/08/03 09:33:06;;;;;;;0.00;0.00;;;;;;;26.24;62.36;101469.03;4941162;28;20471;-69
2022/08/03 09:35:31;;;;;;;0.00;0.00;;;;;;;25.87;62.10;101438.22;4943273;28;20039;-68
2022/08/03 09:38:10;;;;;;;0.00;0.00;;;;;;;25.90;59.67;101457.91;4937457;28;21713;-70
2022/08/03 09:40:36;;;;;;;0.03;0.03;;;;;;;26.09;61.33;101466.41;4937626;28;20126;-70
2022/08/03 09:43:01;;;;;;;0.00;0.00;;;;;;;26.40;60.53;101480.69;4940637;28;20026;-68
2022/08/03 09:45:27;;;;;;;0.03;0.03;;;;;;;26.09;62.00;101471.91;4944818;28;20499;-70
2022/08/03 09:47:52;;;;;;;0.00;0.00;;;;;;;26.27;60.93;101442.97;4938123;28;20035;-69
2022/08/03 09:50:17;;;;;;;0.10;0.10;;;;;;;26.80;61.58;101469.69;4940446;28;20031;-69
2022/08/03 09:52:43;;;;;;;0.03;0.03;;;;;;;26.89;60.87;101473.94;4938668;28;20022;-70
2022/08/03 09:55:13;;;;;;;0.00;0.00;;;;;;;26.69;59.10;101467.56;4945035;28;20026;-70
2022/08/03 09:57:39;;;;;;;0.00;0.00;;;;;;;26.65;58.01;101472.66;4932861;28;20526;-70
2022/08/03 10:00:11;;;;;;;0.00;0.00;;;;;;;26.58;59.17;101471.81;4942279;28;20042;-69
2022/08/03 10:02:37;;;;;;;0.00;0.00;;;;;;;27.10;57.62;101472.84;4949311;28;20023;-69
2022/08/03 10:05:04;;;;;;;0.00;0.00;;;;;;;27.04;57.94;101473.72;4951886;28;20589;-68
2022/08/03 10:07:29;;;;;;;0.00;0.00;;;;;;;27.20;58.34;101468.81;4939114;28;20082;-70
2022/08/03 10:10:01;;;;;;;0.10;0.10;;;;;;;27.58;57.67;101468.09;4946946;28;20058;-72
2022/08/03 10:12:27;;;;;;;0.00;0.00;;;;;;;27.21;55.42;101467.75;4941421;28;20028;-67
2022/08/03 10:14:53;;;;;;;0.10;0.10;;;;;;;27.33;55.60;101471.53;4936005;28;20031;-68
2022/08/03 10:17:19;;;;;;;0.00;0.00;;;;;;;27.32;54.25;101463.50;4943982;28;20435;-68
2022/08/03 10:19:46;;;;;;;0.00;0.00;;;;;;;27.09;53.93;101448.28;4936767;28;20031;-68
2022/08/03 10:22:13;;;;;;;0.00;0.00;;;;;;;27.45;56.20;101462.59;4941973;28;20066;-70
2022/08/03 10:24:45;;;;;;;0.00;0.00;;;;;;;27.49;55.04;101464.72;4934593;28;20086;-69
2022/08/03 10:27:12;;;;;;;0.10;0.10;;;;;;;27.58;56.28;101445.19;4941329;28;20603;-68
2022/08/03 10:29:38;;;;;;;0.00;0.00;;;;;;;27.89;56.17;101460.09;4937414;28;20031;-68
2022/08/03 10:32:13;;;;;;;0.10;0.10;;;;;;;27.94;53.31;101449.25;4947351;28;20037;-70
2022/08/03 10:34:41;;;;;;;0.00;0.00;;;;;;;28.06;53.85;101452.16;4942742;28;20073;-69
2022/08/03 10:37:09;;;;;;;0.00;0.00;;;;;;;28.01;55.10;101451.97;4936382;28;20036;-68
2022/08/03 10:39:35;;;;;;;0.08;0.08;;;;;;;28.01;52.90;101439.00;4940253;28;20022;-68
2022/08/03 10:42:00;;;;;;;0.00;0.00;;;;;;;27.96;51.88;101442.44;4937430;28;20379;-69
2022/08/03 10:44:31;;;;;;;0.00;0.00;;;;;;;28.07;53.02;101443.66;4940206;28;20042;-69
2022/08/03 10:46:57;;;;;;;0.00;0.00;;;;;;;28.24;52.54;101441.22;4938327;28;20352;-69
2022/08/03 10:49:22;;;;;;;0.00;0.00;;;;;;;28.74;53.55;101442.31;4937408;28;20074;-71
2022/08/03 10:51:48;;;;;;;0.00;0.00;;;;;;;29.53;51.01;101440.88;4944082;28;20031;-70
2022/08/03 10:57:44;;;;;;;0.10;0.10;;;;;;;30.38;45.35;101434.34;4943190;28;20065;-69
2022/08/03 11:00:11;;;;;;;0.03;0.03;;;;;;;30.85;45.41;101431.88;4939954;28;20473;-72
2022/08/03 11:03:05;;;;;;;0.00;0.00;;;;;;;30.66;44.97;101424.53;4942360;28;20062;-69
2022/08/03 11:05:54;;;;;;;0.00;0.00;;;;;;;30.79;44.17;101423.44;4938004;28;20126;-69
2022/08/03 11:08:21;;;;;;;0.00;0.00;;;;;;;30.34;46.90;101421.19;4935321;28;20078;-69
2022/08/03 11:10:47;;;;;;;0.00;0.00;;;;;;;30.41;45.92;101394.22;4937326;28;20046;-73
2022/08/03 11:13:16;;;;;;;0.00;0.00;;;;;;;31.19;42.13;101405.22;4941019;28;20035;-70
2022/08/03 11:15:45;;;;;;;0.10;0.10;;;;;;;31.63;40.83;101406.63;4940999;28;20459;-69
2022/08/03 11:18:11;;;;;;;0.10;0.10;;;;;;;31.81;41.88;101419.50;4940397;28;20109;-70
2022/08/03 11:20:50;;;;;;;0.00;0.00;;;;;;;32.31;40.13;101415.16;4941758;28;20058;-70
2022/08/03 11:23:18;;;;;;;0.10;0.10;;;;;;;32.44;39.47;101394.53;4941717;28;20027;-68
2022/08/03 11:26:09;;;;;;;0.00;0.00;;;;;;;32.42;39.34;101408.66;4941828;28;20034;-70
2022/08/03 11:28:35;;;;;;;0.00;0.00;;;;;;;32.55;41.05;101409.41;4940156;28;20427;-70
2022/08/03 11:31:23;;;;;;;0.00;0.00;;;;;;;32.80;38.18;101406.16;4940841;28;20027;-69
2022/08/03 11:34:09;;;;;;;0.00;0.00;;;;;;;32.44;41.85;101405.63;4940564;28;20027;-69
2022/08/03 11:37:12;;;;;;;0.10;0.10;;;;;;;33.20;38.58;101407.00;4942768;28;20035;-70
2022/08/03 11:39:39;;;;;;;0.00;0.00;;;;;;;33.47;38.66;101406.25;4940906;28;20035;-68